メインページ
METAR-TAF:

METAR-TAF

空港 :

Iranshahr, イラン

緯度: 27-12N, 経度: 060-42E, 海抜: 591m

現時点の気象観測

当レポートは1時間8分前の17:00(UTC)に作成
無風
気温 18°C
湿度 20%
気圧 1021 hPa
視程10km以上
1,500メートル以下は雲なし、積乱雲なし

METAR: OIZI 171700Z 00000KT CAVOK 18/M05 Q1021

時間: 21:38 (18:08 UTC)


TAF: 見つかりません

4,000以上の空港の気象観測と天気予報(METAR報とTAF報)

利用可能な観測所は地図上に黄色い丸と赤い丸で示す。

丸の上にカーソルを重ねると観測所名を参照できる。

次にクリックすると気象観測と天気予報を参照できる。

マップの切り替え:黒色「×」印の緑ボタンをクリックして拡大、「-」印の緑ボタンをクリックして縮小、緑色の三角印をクリックして隣りの地図に切り替え


METAR-TAF: